createdAt,value
2023-03-29T00:00:12.257Z,7.19
2023-03-29T00:02:40.382Z,7.22
2023-03-29T00:05:12.366Z,7.16
2023-03-29T00:07:41.092Z,7.19
2023-03-29T00:10:11.756Z,7.18
2023-03-29T00:12:40.976Z,7.22
2023-03-29T00:15:09.894Z,7.24
2023-03-29T00:17:37.893Z,7.18
2023-03-29T00:20:10.266Z,7.19
2023-03-29T00:22:42.057Z,7.19
2023-03-29T00:25:10.509Z,7.24
2023-03-29T00:27:38.836Z,7.28
2023-03-29T00:30:10.102Z,7.32
2023-03-29T00:32:38.672Z,7.35
2023-03-29T00:35:07.529Z,7.32
2023-03-29T00:37:35.450Z,7.34
2023-03-29T00:40:08.272Z,7.34
2023-03-29T00:42:36.208Z,7.39
2023-03-29T00:45:07.495Z,7.39
2023-03-29T00:47:41.471Z,7.41
2023-03-29T00:50:15.833Z,7.41
2023-03-29T00:52:48.962Z,7.42
2023-03-29T00:55:21.638Z,7.35
2023-03-29T00:57:50.245Z,7.42
2023-03-29T01:00:22.206Z,7.35
2023-03-29T01:02:55.131Z,7.34
2023-03-29T01:05:27.020Z,7.34
2023-03-29T01:07:58.977Z,7.34
2023-03-29T01:10:33.905Z,7.35
2023-03-29T01:13:07.012Z,7.32
2023-03-29T01:15:35.226Z,7.35
2023-03-29T01:18:03.529Z,7.38
2023-03-29T01:20:44.776Z,7.36
2023-03-29T01:23:26.879Z,7.38
2023-03-29T01:26:01.126Z,7.38
2023-03-29T01:28:35.432Z,7.34
2023-03-29T01:31:08.456Z,7.36
2023-03-29T01:33:41.592Z,7.31
2023-03-29T01:36:17.500Z,7.35
2023-03-29T01:38:51.768Z,7.35
2023-03-29T01:41:20.192Z,7.34
2023-03-29T01:43:53.028Z,7.25
2023-03-29T01:46:31.140Z,7.25
2023-03-29T01:49:03.103Z,7.26
2023-03-29T01:51:37.079Z,7.39
2023-03-29T01:54:11.420Z,7.45
2023-03-29T01:56:42.743Z,7.51
2023-03-29T01:59:15.262Z,7.58
2023-03-29T02:01:51.917Z,7.58
2023-03-29T02:04:26.576Z,7.62
2023-03-29T02:06:56.614Z,7.63
2023-03-29T02:09:24.843Z,7.65
2023-03-29T02:11:53.731Z,7.66
2023-03-29T02:14:24.160Z,7.66
2023-03-29T02:16:52.101Z,7.72
2023-03-29T02:19:21.798Z,7.75
2023-03-29T02:21:57.351Z,7.75
2023-03-29T02:24:26.320Z,7.76
2023-03-29T02:26:54.336Z,7.77
2023-03-29T02:29:23.580Z,7.77
2023-03-29T02:31:56.631Z,7.73
2023-03-29T02:34:30.817Z,7.75
2023-03-29T02:37:01.877Z,7.67
2023-03-29T02:39:33.749Z,7.77
2023-03-29T02:42:03.250Z,7.87
2023-03-29T02:44:33.056Z,7.91
2023-03-29T02:47:04.381Z,7.84
2023-03-29T02:49:32.377Z,7.93
2023-03-29T02:52:07.750Z,7.89
2023-03-29T02:54:37.980Z,7.87
2023-03-29T02:57:07.402Z,7.94
2023-03-29T02:59:38.500Z,7.98
2023-03-29T03:02:06.879Z,7.98
2023-03-29T03:04:35.491Z,7.97
2023-03-29T03:07:04.705Z,7.96
2023-03-29T03:09:32.846Z,7.98
2023-03-29T03:12:01.067Z,7.98
2023-03-29T03:14:29.490Z,8.01
2023-03-29T03:17:03.917Z,8.06
2023-03-29T03:19:33.111Z,8.08
2023-03-29T03:22:01.022Z,8.10
2023-03-29T03:24:29.059Z,8.08
2023-03-29T03:26:58.058Z,8.07
2023-03-29T03:29:26.585Z,8.08
2023-03-29T03:32:22.084Z,8.14
2023-03-29T03:35:08.941Z,8.16
2023-03-29T03:37:38.297Z,8.18
2023-03-29T03:40:12.079Z,8.58
2023-03-29T03:42:41.010Z,8.59
2023-03-29T03:45:10.812Z,8.45
2023-03-29T03:47:45.975Z,8.35
2023-03-29T03:50:32.667Z,8.31
2023-03-29T03:53:00.992Z,8.31
2023-03-29T03:55:39.676Z,8.30
2023-03-29T03:58:12.321Z,8.30
2023-03-29T04:00:40.450Z,8.28
2023-03-29T04:03:24.735Z,8.35
2023-03-29T04:05:52.408Z,8.31
2023-03-29T04:08:22.502Z,8.34
2023-03-29T04:11:10.633Z,8.35
2023-03-29T04:13:42.134Z,8.33
2023-03-29T04:16:27.602Z,8.34
2023-03-29T04:18:59.270Z,8.35
2023-03-29T04:21:29.844Z,8.37
2023-03-29T04:23:57.714Z,8.40
2023-03-29T04:26:25.911Z,8.45
2023-03-29T04:29:02.169Z,8.45
2023-03-29T04:31:40.926Z,8.41
2023-03-29T04:34:33.369Z,8.42
2023-03-29T04:37:02.620Z,8.40
2023-03-29T04:39:33.972Z,8.48
2023-03-29T04:42:05.635Z,8.52
2023-03-29T04:44:34.951Z,8.54
2023-03-29T04:47:06.842Z,8.51
2023-03-29T04:49:58.839Z,8.52
2023-03-29T04:52:39.963Z,8.51
2023-03-29T04:55:09.230Z,8.56
2023-03-29T04:57:44.593Z,8.62
2023-03-29T05:00:26.970Z,8.66
2023-03-29T05:03:09.984Z,8.62
2023-03-29T05:05:42.922Z,8.62
2023-03-29T05:08:12.264Z,8.65
2023-03-29T05:11:00.521Z,8.62
2023-03-29T05:13:29.818Z,8.59
2023-03-29T05:15:58.148Z,8.68
2023-03-29T05:18:26.245Z,8.69
2023-03-29T05:20:55.568Z,8.69
2023-03-29T05:23:23.995Z,8.71
2023-03-29T05:26:08.016Z,8.66
2023-03-29T05:28:35.990Z,8.75
2023-03-29T05:31:06.710Z,8.80
2023-03-29T05:33:37.121Z,8.76
2023-03-29T05:36:10.871Z,8.82
2023-03-29T05:38:46.621Z,8.80
2023-03-29T05:41:15.934Z,8.82
2023-03-29T05:44:19.486Z,8.85
2023-03-29T05:46:52.148Z,8.89
2023-03-29T05:49:21.487Z,8.96
2023-03-29T05:52:06.779Z,8.92
2023-03-29T05:54:36.205Z,8.93
2023-03-29T05:57:07.033Z,8.99
2023-03-29T05:59:35.001Z,8.99
2023-03-29T06:02:05.006Z,8.97
2023-03-29T06:04:36.590Z,9.05
2023-03-29T06:07:25.886Z,9.07
2023-03-29T06:10:18.005Z,9.16
2023-03-29T06:12:50.203Z,9.23
2023-03-29T06:15:22.093Z,9.30
2023-03-29T06:18:01.537Z,9.36
2023-03-29T06:20:29.824Z,9.43
2023-03-29T06:23:04.862Z,9.50
2023-03-29T06:25:32.857Z,9.54
2023-03-29T06:28:01.015Z,9.54
2023-03-29T06:30:29.102Z,9.60
2023-03-29T06:33:00.949Z,9.67
2023-03-29T06:35:49.401Z,9.75
2023-03-29T06:38:22.828Z,9.84
2023-03-29T06:40:53.804Z,9.84
2023-03-29T06:43:24.070Z,9.88
2023-03-29T06:46:00.223Z,9.94
2023-03-29T06:48:38.432Z,10.01
2023-03-29T06:51:07.583Z,10.11
2023-03-29T06:53:36.947Z,10.19
2023-03-29T06:56:05.348Z,10.36
2023-03-29T06:58:45.031Z,10.40
2023-03-29T07:01:29.526Z,10.77
2023-03-29T07:04:08.205Z,10.91
2023-03-29T07:07:01.632Z,10.87
2023-03-29T07:09:35.971Z,10.90
2023-03-29T07:12:23.123Z,10.96
2023-03-29T07:14:51.857Z,10.96
2023-03-29T07:17:20.616Z,10.85
2023-03-29T07:19:49.357Z,10.66
2023-03-29T07:22:36.238Z,10.45
2023-03-29T07:25:09.152Z,10.40
2023-03-29T07:27:37.809Z,10.43
2023-03-29T07:30:10.642Z,10.45
2023-03-29T07:32:39.768Z,10.45
2023-03-29T07:35:30.935Z,10.50
2023-03-29T07:37:59.656Z,10.60
2023-03-29T07:40:30.310Z,10.63
2023-03-29T07:42:58.790Z,10.67
2023-03-29T07:45:29.794Z,10.64
2023-03-29T07:48:05.425Z,10.71
2023-03-29T07:50:47.766Z,10.83
2023-03-29T07:53:17.279Z,10.81
2023-03-29T07:55:49.096Z,10.80
2023-03-29T07:58:35.843Z,10.84
2023-03-29T08:01:04.148Z,10.91
2023-03-29T08:04:01.275Z,10.99
2023-03-29T08:06:48.943Z,11.07
2023-03-29T08:09:17.655Z,11.10
2023-03-29T08:11:47.274Z,11.18
2023-03-29T08:14:23.748Z,11.10
2023-03-29T08:17:05.741Z,11.07
2023-03-29T08:19:40.088Z,11.03
2023-03-29T08:22:09.512Z,11.04
2023-03-29T08:25:05.529Z,11.07
2023-03-29T08:27:39.659Z,11.04
2023-03-29T08:30:10.613Z,10.96
2023-03-29T08:32:40.161Z,10.96
2023-03-29T08:35:10.681Z,11.08
2023-03-29T08:37:51.278Z,11.18
2023-03-29T08:40:22.742Z,11.30
2023-03-29T08:43:33.699Z,11.41
2023-03-29T08:46:36.800Z,11.66
2023-03-29T08:49:17.783Z,11.75
2023-03-29T08:51:49.158Z,11.75
2023-03-29T08:54:21.848Z,11.76
2023-03-29T08:57:17.375Z,11.66
2023-03-29T08:59:52.883Z,11.63
2023-03-29T09:02:24.996Z,11.66
2023-03-29T09:05:01.397Z,11.69
2023-03-29T09:07:42.052Z,11.73
2023-03-29T09:10:15.439Z,11.78
2023-03-29T09:13:01.365Z,11.81
2023-03-29T09:15:38.202Z,11.75
2023-03-29T09:18:27.428Z,11.81
2023-03-29T09:21:01.408Z,11.76
2023-03-29T09:23:52.586Z,11.76
2023-03-29T09:26:41.378Z,11.71
2023-03-29T09:29:40.949Z,11.82
2023-03-29T09:32:20.072Z,11.83
2023-03-29T09:35:00.932Z,11.83
2023-03-29T09:37:34.022Z,11.85
2023-03-29T09:40:11.133Z,11.97
2023-03-29T09:42:59.242Z,12.12
2023-03-29T09:45:27.951Z,12.30
2023-03-29T09:48:00.200Z,12.43
2023-03-29T09:50:37.303Z,12.81
2023-03-29T09:53:09.016Z,12.87
2023-03-29T09:55:40.861Z,12.89
2023-03-29T09:58:31.045Z,12.69
2023-03-29T10:01:01.089Z,12.71
2023-03-29T10:03:34.850Z,12.80
2023-03-29T10:06:12.992Z,12.88
2023-03-29T10:08:48.189Z,12.78
2023-03-29T10:11:23.158Z,12.78
2023-03-29T10:13:54.985Z,12.61
2023-03-29T10:16:24.434Z,12.84
2023-03-29T10:18:54.625Z,12.89
2023-03-29T10:21:23.768Z,12.82
2023-03-29T10:23:59.198Z,12.80
2023-03-29T10:26:30.893Z,12.85
2023-03-29T10:29:01.553Z,12.99
2023-03-29T10:31:31.360Z,13.08
2023-03-29T10:34:05.073Z,12.91
2023-03-29T10:36:33.493Z,13.05
2023-03-29T10:39:05.750Z,13.11
2023-03-29T10:41:35.379Z,13.22
2023-03-29T10:44:03.694Z,13.38
2023-03-29T10:46:33.628Z,13.45
2023-03-29T10:49:10.008Z,13.60
2023-03-29T10:51:37.880Z,13.56
2023-03-29T10:54:08.007Z,13.71
2023-03-29T10:56:41.844Z,13.98
2023-03-29T10:59:30.782Z,14.36
2023-03-29T11:02:32.175Z,14.31
2023-03-29T11:05:12.632Z,14.58
2023-03-29T11:07:50.554Z,14.58
2023-03-29T11:10:34.962Z,14.83
2023-03-29T11:13:08.993Z,14.90
2023-03-29T11:15:54.499Z,15.41
2023-03-29T11:18:45.951Z,15.64
2023-03-29T11:21:24.179Z,15.82
2023-03-29T11:24:03.293Z,16.45
2023-03-29T11:26:35.398Z,16.46
2023-03-29T11:29:07.152Z,16.40
2023-03-29T11:31:42.143Z,17.08
2023-03-29T11:34:22.076Z,17.19
2023-03-29T11:36:57.234Z,16.83
2023-03-29T11:39:35.197Z,16.50
2023-03-29T11:42:09.284Z,16.38
2023-03-29T11:44:38.567Z,16.45
2023-03-29T11:47:10.272Z,16.33
2023-03-29T11:49:43.094Z,16.39
2023-03-29T11:52:17.716Z,16.39
2023-03-29T11:54:49.719Z,16.57
2023-03-29T11:57:24.526Z,17.28
2023-03-29T11:59:57.931Z,17.75
2023-03-29T12:02:31.747Z,17.24
2023-03-29T12:05:03.434Z,17.34
2023-03-29T12:07:37.832Z,18.13
2023-03-29T12:10:09.848Z,18.51
2023-03-29T12:12:45.860Z,19.36
2023-03-29T12:15:20.256Z,19.24
2023-03-29T12:17:55.867Z,18.62
2023-03-29T12:20:28.324Z,17.87
2023-03-29T12:23:00.763Z,18.26
2023-03-29T12:25:34.675Z,17.53
2023-03-29T12:28:19.270Z,17.34
2023-03-29T12:30:55.944Z,17.36
2023-03-29T12:33:58.806Z,17.73
2023-03-29T12:37:26.991Z,18.10
2023-03-29T12:40:18.590Z,17.59
2023-03-29T12:43:08.530Z,17.63
2023-03-29T12:46:06.692Z,17.35
2023-03-29T12:48:35.562Z,17.45
2023-03-29T12:51:06.213Z,17.12
2023-03-29T12:53:36.827Z,16.94
2023-03-29T12:56:16.062Z,16.97
2023-03-29T12:58:53.123Z,17.03
2023-03-29T13:01:31.578Z,17.11
2023-03-29T13:04:20.364Z,17.01
2023-03-29T13:07:07.147Z,17.11
2023-03-29T13:09:37.494Z,17.28
2023-03-29T13:12:09.300Z,17.55
2023-03-29T13:14:40.075Z,17.80
2023-03-29T13:17:18.226Z,17.87
2023-03-29T13:19:51.986Z,17.96
2023-03-29T13:22:32.192Z,17.79
2023-03-29T13:25:11.024Z,17.80
2023-03-29T13:27:50.698Z,17.76
2023-03-29T13:30:28.505Z,17.55
2023-03-29T13:33:07.328Z,17.41
2023-03-29T13:35:46.213Z,17.42
2023-03-29T13:38:19.601Z,17.52
2023-03-29T13:41:03.484Z,17.61
2023-03-29T13:43:35.429Z,17.87
2023-03-29T13:46:19.818Z,17.79
2023-03-29T13:49:04.780Z,17.76
2023-03-29T13:51:40.521Z,17.80
2023-03-29T13:54:19.415Z,17.87
2023-03-29T13:56:58.939Z,17.93
2023-03-29T13:59:33.040Z,17.72
2023-03-29T14:02:04.187Z,17.51
2023-03-29T14:04:38.711Z,17.24
2023-03-29T14:07:10.588Z,17.15
2023-03-29T14:09:43.915Z,17.19
2023-03-29T14:12:14.569Z,17.25
2023-03-29T14:14:58.141Z,17.28
2023-03-29T14:17:28.061Z,17.31
2023-03-29T14:19:58.873Z,17.32
2023-03-29T14:22:32.269Z,17.17
2023-03-29T14:25:04.671Z,17.07
2023-03-29T14:27:33.526Z,16.81
2023-03-29T14:30:02.888Z,16.79
2023-03-29T14:32:32.713Z,16.63
2023-03-29T14:35:01.861Z,16.61
2023-03-29T14:37:30.866Z,16.61
2023-03-29T14:39:59.914Z,16.64
2023-03-29T14:42:29.415Z,16.73
2023-03-29T14:45:00.007Z,16.90
2023-03-29T14:47:31.309Z,16.88
2023-03-29T14:50:00.867Z,16.87
2023-03-29T14:52:30.357Z,16.87
2023-03-29T14:55:01.881Z,16.91
2023-03-29T14:57:35.109Z,16.98
2023-03-29T15:00:13.431Z,17.04
2023-03-29T15:02:50.953Z,17.08
2023-03-29T15:05:31.404Z,17.15
2023-03-29T15:07:59.442Z,17.25
2023-03-29T15:10:27.370Z,17.28
2023-03-29T15:12:55.933Z,17.46
2023-03-29T15:15:25.709Z,17.41
2023-03-29T15:17:57.149Z,17.34
2023-03-29T15:20:27.982Z,17.29
2023-03-29T15:23:02.286Z,17.24
2023-03-29T15:25:34.739Z,17.08
2023-03-29T15:28:02.608Z,17.00
2023-03-29T15:30:34.853Z,17.07
2023-03-29T15:33:16.264Z,17.04
2023-03-29T15:35:47.524Z,17.01
2023-03-29T15:38:15.836Z,17.10
2023-03-29T15:40:43.971Z,17.06
2023-03-29T15:43:12.104Z,16.95
2023-03-29T15:45:39.918Z,16.83
2023-03-29T15:48:16.188Z,16.79
2023-03-29T15:50:45.187Z,16.79
2023-03-29T15:53:15.385Z,16.80
2023-03-29T15:55:46.924Z,16.85
2023-03-29T15:58:16.943Z,16.88
2023-03-29T16:00:49.565Z,16.85
2023-03-29T16:03:19.370Z,16.80
2023-03-29T16:05:47.768Z,16.83
2023-03-29T16:08:15.720Z,16.77
2023-03-29T16:10:44.790Z,16.67
2023-03-29T16:13:14.727Z,16.66
2023-03-29T16:15:44.033Z,16.64
2023-03-29T16:18:11.940Z,16.59
2023-03-29T16:20:41.649Z,16.52
2023-03-29T16:23:09.832Z,16.45
2023-03-29T16:25:39.892Z,16.33
2023-03-29T16:28:10.036Z,16.36
2023-03-29T16:30:38.872Z,16.34
2023-03-29T16:33:08.565Z,16.36
2023-03-29T16:35:38.397Z,16.32
2023-03-29T16:38:08.616Z,16.29
2023-03-29T16:40:36.923Z,16.20
2023-03-29T16:43:05.135Z,16.12
2023-03-29T16:45:33.083Z,16.09
2023-03-29T16:48:01.689Z,16.01
2023-03-29T16:50:29.611Z,15.95
2023-03-29T16:52:57.538Z,15.88
2023-03-29T16:55:26.799Z,15.79
2023-03-29T16:57:54.986Z,15.79
2023-03-29T17:00:23.136Z,15.71
2023-03-29T17:02:51.055Z,15.65
2023-03-29T17:05:19.856Z,15.62
2023-03-29T17:07:47.861Z,15.58
2023-03-29T17:10:16.067Z,15.51
2023-03-29T17:12:45.633Z,15.48
2023-03-29T17:15:13.582Z,15.46
2023-03-29T17:17:41.577Z,15.43
2023-03-29T17:20:12.429Z,15.40
2023-03-29T17:22:40.340Z,15.36
2023-03-29T17:25:09.506Z,15.36
2023-03-29T17:27:37.923Z,15.33
2023-03-29T17:30:09.257Z,15.33
2023-03-29T17:32:37.211Z,15.26
2023-03-29T17:35:05.756Z,15.22
2023-03-29T17:37:33.681Z,15.17
2023-03-29T17:40:07.158Z,15.17
2023-03-29T17:42:34.990Z,15.13
2023-03-29T17:45:02.882Z,15.07
2023-03-29T17:47:32.170Z,15.03
2023-03-29T17:49:59.845Z,15.00
2023-03-29T17:52:28.119Z,14.96
2023-03-29T17:54:56.082Z,14.99
2023-03-29T17:57:24.268Z,14.97
2023-03-29T17:59:52.143Z,14.96
2023-03-29T18:02:22.385Z,14.99
2023-03-29T18:04:51.982Z,14.93
2023-03-29T18:07:19.904Z,14.93
2023-03-29T18:09:47.821Z,14.92
2023-03-29T18:12:15.666Z,14.87
2023-03-29T18:14:43.478Z,14.85
2023-03-29T18:17:11.311Z,14.85
2023-03-29T18:19:39.167Z,14.90
2023-03-29T18:22:08.419Z,14.85
2023-03-29T18:24:36.087Z,14.87
2023-03-29T18:27:03.972Z,14.86
2023-03-29T18:29:31.839Z,14.83
2023-03-29T18:32:02.744Z,14.85
2023-03-29T18:34:31.284Z,14.83
2023-03-29T18:36:59.241Z,14.85
2023-03-29T18:39:28.495Z,14.82
2023-03-29T18:41:56.373Z,14.80
2023-03-29T18:44:27.288Z,14.79
2023-03-29T18:46:55.394Z,14.82
2023-03-29T18:49:23.316Z,14.80
2023-03-29T18:51:51.141Z,14.82
2023-03-29T18:54:19.263Z,14.86
2023-03-29T18:56:48.495Z,14.80
2023-03-29T18:59:17.126Z,14.79
2023-03-29T19:01:45.307Z,14.79
2023-03-29T19:04:14.364Z,14.79
2023-03-29T19:06:42.891Z,14.79
2023-03-29T19:09:10.869Z,14.80
2023-03-29T19:11:38.774Z,14.77
2023-03-29T19:14:09.155Z,14.76
2023-03-29T19:16:37.299Z,14.73
2023-03-29T19:19:06.940Z,14.69
2023-03-29T19:21:34.936Z,14.76
2023-03-29T19:24:05.023Z,14.79
2023-03-29T19:26:33.590Z,14.79
2023-03-29T19:29:01.771Z,14.76
2023-03-29T19:31:33.478Z,14.73
2023-03-29T19:34:01.968Z,14.68
2023-03-29T19:36:30.926Z,14.71
2023-03-29T19:38:59.402Z,14.72
2023-03-29T19:41:27.762Z,14.72
2023-03-29T19:43:55.708Z,14.71
2023-03-29T19:46:24.079Z,14.72
2023-03-29T19:48:55.562Z,14.72
2023-03-29T19:51:23.900Z,14.75
2023-03-29T19:53:52.769Z,14.77
2023-03-29T19:56:20.787Z,14.77
2023-03-29T19:58:49.208Z,14.77
2023-03-29T20:01:20.565Z,14.75
2023-03-29T20:03:48.947Z,14.72
2023-03-29T20:06:19.698Z,14.69
2023-03-29T20:08:48.353Z,14.69
2023-03-29T20:11:19.792Z,14.71
2023-03-29T20:13:47.672Z,14.73
2023-03-29T20:16:18.034Z,14.73
2023-03-29T20:18:46.673Z,14.72
2023-03-29T20:21:18.312Z,14.73
2023-03-29T20:23:47.564Z,14.73
2023-03-29T20:26:15.370Z,14.77
2023-03-29T20:28:43.448Z,14.80
2023-03-29T20:31:11.725Z,14.83
2023-03-29T20:33:41.259Z,14.80
2023-03-29T20:36:10.036Z,14.79
2023-03-29T20:38:38.365Z,14.79
2023-03-29T20:41:09.285Z,14.89
2023-03-29T20:43:38.200Z,14.83
2023-03-29T20:46:14.296Z,14.83
2023-03-29T20:48:52.922Z,14.89
2023-03-29T20:51:21.423Z,14.96
2023-03-29T20:53:50.652Z,14.96
2023-03-29T20:56:20.850Z,14.99
2023-03-29T20:58:48.714Z,14.99
2023-03-29T21:01:16.565Z,14.97
2023-03-29T21:03:44.514Z,14.93
2023-03-29T21:06:13.993Z,14.95
2023-03-29T21:08:42.540Z,14.92
2023-03-29T21:11:13.031Z,14.95
2023-03-29T21:13:42.526Z,14.95
2023-03-29T21:16:10.847Z,14.93
2023-03-29T21:18:39.503Z,14.90
2023-03-29T21:21:08.244Z,14.95
2023-03-29T21:23:36.562Z,15.02
2023-03-29T21:26:06.734Z,15.02
2023-03-29T21:28:35.340Z,15.07
2023-03-29T21:31:07.063Z,15.04
2023-03-29T21:33:36.086Z,15.07
2023-03-29T21:36:04.259Z,15.07
2023-03-29T21:38:32.172Z,15.06
2023-03-29T21:41:00.997Z,14.97
2023-03-29T21:43:29.048Z,14.95
2023-03-29T21:45:57.586Z,14.99
2023-03-29T21:48:27.248Z,14.93
2023-03-29T21:50:55.095Z,14.95
2023-03-29T21:53:24.552Z,14.99
2023-03-29T21:55:53.114Z,15.07
2023-03-29T21:58:21.455Z,15.02
2023-03-29T22:00:49.538Z,15.00
2023-03-29T22:03:17.655Z,15.02
2023-03-29T22:05:58.282Z,14.96
2023-03-29T22:08:27.054Z,14.97
2023-03-29T22:10:56.777Z,15.00
2023-03-29T22:13:26.106Z,15.04
2023-03-29T22:15:58.616Z,15.00
2023-03-29T22:18:27.810Z,14.99
2023-03-29T22:20:57.179Z,14.96
2023-03-29T22:23:25.738Z,14.93
2023-03-29T22:25:53.608Z,14.90
2023-03-29T22:28:21.518Z,14.76
2023-03-29T22:30:49.326Z,14.75
2023-03-29T22:33:17.255Z,14.83
2023-03-29T22:35:45.137Z,14.92
2023-03-29T22:38:14.426Z,15.04
2023-03-29T22:40:42.155Z,15.16
2023-03-29T22:43:09.966Z,15.11
2023-03-29T22:45:37.953Z,15.17
2023-03-29T22:48:06.612Z,15.28
2023-03-29T22:50:34.702Z,15.33
2023-03-29T22:53:02.597Z,15.41
2023-03-29T22:55:31.813Z,15.47
2023-03-29T22:57:59.493Z,15.54
2023-03-29T23:00:27.346Z,15.50
2023-03-29T23:02:55.352Z,15.57
2023-03-29T23:05:23.392Z,15.59
2023-03-29T23:07:51.434Z,15.65
2023-03-29T23:10:19.511Z,15.67
2023-03-29T23:12:49.629Z,15.69
2023-03-29T23:15:17.957Z,15.72
2023-03-29T23:17:45.972Z,15.75
2023-03-29T23:20:14.121Z,15.78
2023-03-29T23:22:41.975Z,15.84
2023-03-29T23:25:10.322Z,15.77
2023-03-29T23:27:38.232Z,15.84
2023-03-29T23:30:08.907Z,15.82
2023-03-29T23:32:36.775Z,15.85
2023-03-29T23:35:06.097Z,15.79
2023-03-29T23:37:33.759Z,15.78
2023-03-29T23:40:01.642Z,15.78
2023-03-29T23:42:30.809Z,15.74
2023-03-29T23:44:58.494Z,15.75
2023-03-29T23:47:28.778Z,15.74
2023-03-29T23:49:56.707Z,15.72
2023-03-29T23:52:24.735Z,15.62
2023-03-29T23:54:52.564Z,15.64
2023-03-29T23:57:21.338Z,15.71
2023-03-29T23:59:52.575Z,15.74
